createdAt,value
2018-11-05T00:01:17.487Z,93.60
2018-11-05T00:03:45.562Z,93.50
2018-11-05T00:06:13.369Z,93.60
2018-11-05T00:08:41.005Z,93.50
2018-11-05T00:11:08.847Z,93.40
2018-11-05T00:13:36.720Z,93.30
2018-11-05T00:16:04.494Z,93.40
2018-11-05T00:18:32.319Z,93.10
2018-11-05T00:21:00.377Z,93.10
2018-11-05T00:23:28.058Z,93.20
2018-11-05T00:25:56.070Z,93.40
2018-11-05T00:28:23.901Z,93.50
2018-11-05T00:30:51.611Z,93.50
2018-11-05T00:33:19.301Z,93.80
2018-11-05T00:35:46.988Z,93.70
2018-11-05T00:38:14.709Z,93.50
2018-11-05T00:40:42.366Z,93.50
2018-11-05T00:43:10.326Z,93.30
2018-11-05T00:45:38.186Z,93.10
2018-11-05T00:48:06.110Z,93.10
2018-11-05T00:50:34.238Z,93.20
2018-11-05T00:53:02.423Z,93.40
2018-11-05T00:55:30.561Z,93.30
2018-11-05T00:57:58.373Z,93.30
2018-11-05T01:00:26.361Z,93.40
2018-11-05T01:02:54.221Z,93.50
2018-11-05T01:05:22.310Z,93.30
2018-11-05T01:07:50.281Z,93.30
2018-11-05T01:10:18.394Z,93.30
2018-11-05T01:12:46.462Z,93.40
2018-11-05T01:15:15.500Z,93.50
2018-11-05T01:17:43.181Z,93.40
2018-11-05T01:20:12.355Z,93.40
2018-11-05T01:22:40.441Z,93.30
2018-11-05T01:25:08.287Z,93.30
2018-11-05T01:27:36.665Z,93.60
2018-11-05T01:30:07.096Z,93.50
2018-11-05T01:32:35.318Z,93.50
2018-11-05T01:35:04.152Z,93.40
2018-11-05T01:37:32.052Z,93.30
2018-11-05T01:39:59.852Z,93.20
2018-11-05T01:42:28.061Z,93.30
2018-11-05T01:44:56.055Z,93.50
2018-11-05T01:47:24.414Z,93.60
2018-11-05T01:49:52.505Z,93.60
2018-11-05T01:52:20.615Z,93.60
2018-11-05T01:54:48.517Z,93.60
2018-11-05T01:57:16.383Z,93.70
2018-11-05T01:59:44.082Z,93.80
2018-11-05T02:02:11.805Z,93.80
2018-11-05T02:04:39.591Z,93.70
2018-11-05T02:07:07.312Z,93.80
2018-11-05T02:09:35.152Z,93.90
2018-11-05T02:12:02.876Z,93.70
2018-11-05T02:14:30.594Z,93.70
2018-11-05T02:16:58.725Z,93.60
2018-11-05T02:19:26.669Z,93.80
2018-11-05T02:21:55.625Z,94.00
2018-11-05T02:24:23.888Z,94.10
2018-11-05T02:26:51.958Z,93.80
2018-11-05T02:29:19.996Z,93.90
2018-11-05T02:31:47.729Z,94.10
2018-11-05T02:34:15.941Z,94.20
2018-11-05T02:36:44.116Z,94.60
2018-11-05T02:39:12.521Z,94.60
2018-11-05T02:41:40.547Z,94.90
2018-11-05T02:44:08.550Z,94.80
2018-11-05T02:46:36.702Z,94.70
2018-11-05T02:49:04.569Z,95.00
2018-11-05T02:51:32.603Z,94.80
2018-11-05T02:54:00.636Z,94.80
2018-11-05T02:56:28.678Z,94.80
2018-11-05T02:58:56.849Z,94.90
2018-11-05T03:01:25.042Z,95.00
2018-11-05T03:03:52.894Z,95.20
2018-11-05T03:06:20.673Z,95.20
2018-11-05T03:08:48.751Z,95.40
2018-11-05T03:11:16.733Z,95.70
2018-11-05T03:13:44.508Z,95.60
2018-11-05T03:16:12.306Z,96.10
2018-11-05T03:18:40.298Z,96.40
2018-11-05T03:21:08.134Z,96.20
2018-11-05T03:23:35.924Z,95.90
2018-11-05T03:26:03.819Z,96.30
2018-11-05T03:28:32.030Z,96.10
2018-11-05T03:30:59.754Z,96.00
2018-11-05T03:33:27.645Z,96.20
2018-11-05T03:35:55.659Z,96.40
2018-11-05T03:38:23.818Z,96.40
2018-11-05T03:40:51.870Z,96.50
2018-11-05T03:43:19.808Z,96.60
2018-11-05T03:45:47.711Z,96.80
2018-11-05T03:48:15.810Z,96.80
2018-11-05T03:50:43.889Z,97.00
2018-11-05T03:53:11.864Z,96.90
2018-11-05T03:55:40.689Z,96.70
2018-11-05T03:58:08.838Z,96.80
2018-11-05T04:00:37.159Z,97.00
2018-11-05T04:03:05.368Z,97.00
2018-11-05T04:05:33.325Z,96.90
2018-11-05T04:08:01.034Z,96.90
2018-11-05T04:10:28.870Z,97.20
2018-11-05T04:12:56.958Z,96.90
2018-11-05T04:15:24.752Z,96.80
2018-11-05T04:17:52.618Z,96.60
2018-11-05T04:20:20.890Z,96.70
2018-11-05T04:22:48.948Z,96.70
2018-11-05T04:25:16.816Z,96.40
2018-11-05T04:27:44.890Z,96.50
2018-11-05T04:30:13.853Z,96.60
2018-11-05T04:32:42.282Z,96.60
2018-11-05T04:35:10.967Z,96.80
2018-11-05T04:37:38.971Z,96.70
2018-11-05T04:40:07.758Z,96.80
2018-11-05T04:42:41.761Z,97.00
2018-11-05T04:45:12.164Z,96.60
2018-11-05T04:47:40.661Z,96.60
2018-11-05T04:50:09.892Z,96.80
2018-11-05T04:52:38.357Z,97.30
2018-11-05T04:55:06.179Z,96.90
2018-11-05T04:57:34.239Z,96.90
2018-11-05T05:00:18.333Z,96.80
2018-11-05T05:02:46.445Z,96.90
2018-11-05T05:05:15.437Z,97.20
2018-11-05T05:07:43.569Z,97.00
2018-11-05T05:10:11.673Z,97.00
2018-11-05T05:12:40.699Z,97.30
2018-11-05T05:15:09.473Z,97.20
2018-11-05T05:17:38.266Z,97.20
2018-11-05T05:20:08.471Z,97.30
2018-11-05T05:22:36.342Z,97.40
2018-11-05T05:25:04.352Z,97.30
2018-11-05T05:27:32.283Z,97.20
2018-11-05T05:30:00.273Z,97.40
2018-11-05T05:32:28.295Z,97.50
2018-11-05T05:34:56.120Z,97.10
2018-11-05T05:37:24.037Z,97.10
2018-11-05T05:39:51.740Z,97.00
2018-11-05T05:42:19.407Z,97.00
2018-11-05T05:44:47.036Z,96.90
2018-11-05T05:47:14.903Z,96.90
2018-11-05T05:49:42.589Z,96.80
2018-11-05T05:52:10.309Z,96.80
2018-11-05T05:54:37.935Z,96.80
2018-11-05T05:57:05.585Z,96.80
2018-11-05T05:59:33.217Z,96.70
2018-11-05T06:02:00.834Z,96.50
2018-11-05T06:04:28.494Z,96.50
2018-11-05T06:06:56.246Z,96.70
2018-11-05T06:09:23.892Z,96.60
2018-11-05T06:11:51.504Z,96.30
2018-11-05T06:14:19.144Z,96.20
2018-11-05T06:16:46.725Z,96.40
2018-11-05T06:19:14.388Z,96.30
2018-11-05T06:21:42.083Z,96.30
2018-11-05T06:24:09.738Z,96.20
2018-11-05T06:26:37.400Z,96.50
2018-11-05T06:29:05.066Z,96.50
2018-11-05T06:31:32.742Z,96.70
2018-11-05T06:34:00.402Z,96.50
2018-11-05T06:36:28.011Z,96.00
2018-11-05T06:38:55.669Z,96.30
2018-11-05T06:41:23.394Z,96.20
2018-11-05T06:43:51.041Z,96.30
2018-11-05T06:46:18.725Z,96.30
2018-11-05T06:48:46.370Z,96.70
2018-11-05T06:51:14.081Z,96.90
2018-11-05T06:53:41.763Z,96.70
2018-11-05T06:56:09.378Z,96.50
2018-11-05T06:58:37.062Z,96.30
2018-11-05T07:01:05.055Z,96.50
2018-11-05T07:03:32.721Z,96.60
2018-11-05T07:06:00.589Z,96.60
2018-11-05T07:08:28.280Z,96.50
2018-11-05T07:10:55.989Z,96.50
2018-11-05T07:13:23.761Z,96.50
2018-11-05T07:15:51.406Z,96.50
2018-11-05T07:18:19.213Z,96.50
2018-11-05T07:20:46.786Z,96.40
2018-11-05T07:23:14.441Z,96.30
2018-11-05T07:25:42.090Z,96.40
2018-11-05T07:28:09.812Z,96.10
2018-11-05T07:30:37.601Z,96.30
2018-11-05T07:33:05.441Z,96.30
2018-11-05T07:35:33.386Z,96.20
2018-11-05T07:38:01.246Z,96.20
2018-11-05T07:40:28.924Z,96.10
2018-11-05T07:42:56.589Z,96.20
2018-11-05T07:45:24.462Z,96.30
2018-11-05T07:47:52.232Z,96.80
2018-11-05T07:50:20.838Z,96.70
2018-11-05T07:52:48.865Z,96.50
2018-11-05T07:55:17.599Z,96.50
2018-11-05T07:57:46.638Z,96.50
2018-11-05T08:00:20.773Z,96.30
2018-11-05T08:02:49.667Z,96.30
2018-11-05T08:05:18.562Z,96.30
2018-11-05T08:07:46.781Z,96.40
2018-11-05T08:10:14.562Z,96.60
2018-11-05T08:12:42.449Z,96.80
2018-11-05T08:15:12.772Z,96.30
2018-11-05T08:17:41.356Z,96.60
2018-11-05T08:20:09.494Z,96.90
2018-11-05T08:22:37.369Z,97.00
2018-11-05T08:25:05.264Z,97.00
2018-11-05T08:27:33.076Z,97.00
2018-11-05T08:30:00.850Z,96.90
2018-11-05T08:32:28.499Z,96.80
2018-11-05T08:34:56.218Z,96.60
2018-11-05T08:37:23.906Z,96.10
2018-11-05T08:39:51.581Z,95.80
2018-11-05T08:42:19.270Z,95.90
2018-11-05T08:44:46.982Z,95.90
2018-11-05T08:47:14.713Z,96.00
2018-11-05T08:49:42.871Z,95.90
2018-11-05T08:52:10.814Z,96.10
2018-11-05T08:54:39.885Z,95.80
2018-11-05T08:57:07.641Z,95.80
2018-11-05T08:59:36.055Z,96.00
2018-11-05T09:02:04.116Z,96.00
2018-11-05T09:04:31.850Z,98.10
2018-11-05T09:06:59.701Z,96.20
2018-11-05T09:09:27.473Z,95.90
2018-11-05T09:11:55.397Z,95.30
2018-11-05T09:14:23.200Z,95.10
2018-11-05T09:16:51.053Z,95.40
2018-11-05T09:19:18.932Z,95.80
2018-11-05T09:21:46.613Z,95.60
2018-11-05T09:24:14.620Z,95.50
2018-11-05T09:26:42.730Z,95.70
2018-11-05T09:29:10.502Z,95.70
2018-11-05T09:31:38.413Z,95.70
2018-11-05T09:34:06.039Z,95.30
2018-11-05T09:36:34.036Z,95.30
2018-11-05T09:39:01.871Z,95.40
2018-11-05T09:41:29.739Z,95.50
2018-11-05T09:43:57.927Z,95.50
2018-11-05T09:46:25.906Z,95.60
2018-11-05T09:48:53.616Z,95.40
2018-11-05T09:51:21.282Z,95.60
2018-11-05T09:53:49.063Z,95.80
2018-11-05T09:56:17.274Z,95.90
2018-11-05T09:58:44.962Z,96.00
2018-11-05T10:01:12.641Z,96.00
2018-11-05T10:03:45.885Z,95.90
2018-11-05T10:06:13.411Z,96.20
2018-11-05T10:08:41.196Z,95.90
2018-11-05T10:11:09.061Z,95.80
2018-11-05T10:13:36.829Z,95.60
2018-11-05T10:16:05.041Z,95.60
2018-11-05T10:18:32.769Z,95.60
2018-11-05T10:21:00.818Z,95.40
2018-11-05T10:23:28.746Z,95.40
2018-11-05T10:25:56.541Z,95.60
2018-11-05T10:28:24.326Z,95.30
2018-11-05T10:30:52.116Z,95.40
2018-11-05T10:33:19.829Z,95.80
2018-11-05T10:35:53.525Z,95.60
2018-11-05T10:38:22.102Z,95.80
2018-11-05T10:40:49.766Z,95.90
2018-11-05T10:43:17.416Z,95.80
2018-11-05T10:45:45.114Z,95.50
2018-11-05T10:48:13.116Z,95.20
2018-11-05T10:50:40.730Z,95.50
2018-11-05T10:53:08.457Z,94.50
2018-11-05T10:55:36.173Z,94.40
2018-11-05T10:58:03.923Z,94.10
2018-11-05T11:00:37.259Z,94.20
2018-11-05T11:03:10.561Z,94.00
2018-11-05T11:05:38.337Z,93.60
2018-11-05T11:08:06.081Z,93.60
2018-11-05T11:10:33.942Z,93.70
2018-11-05T11:13:01.635Z,93.40
2018-11-05T11:15:29.305Z,93.30
2018-11-05T11:17:57.365Z,93.00
2018-11-05T11:20:25.019Z,93.10
2018-11-05T11:22:52.736Z,93.10
2018-11-05T11:25:20.417Z,92.90
2018-11-05T11:27:49.077Z,92.90
2018-11-05T11:30:17.253Z,92.80
2018-11-05T11:32:46.698Z,92.90
2018-11-05T11:35:14.553Z,92.80
2018-11-05T11:37:42.324Z,92.90
2018-11-05T11:40:12.275Z,92.50
2018-11-05T11:42:40.866Z,92.30
2018-11-05T11:45:09.417Z,92.10
2018-11-05T11:47:37.100Z,92.30
2018-11-05T11:50:06.845Z,92.10
2018-11-05T11:52:34.585Z,91.70
2018-11-05T11:55:02.475Z,91.80
2018-11-05T11:57:30.191Z,91.50
2018-11-05T11:59:57.901Z,91.80
2018-11-05T12:02:25.674Z,91.60
2018-11-05T12:04:53.742Z,91.70
2018-11-05T12:07:21.489Z,91.40
2018-11-05T12:09:49.296Z,91.20
2018-11-05T12:12:17.102Z,91.10
2018-11-05T12:14:44.990Z,91.30
2018-11-05T12:17:12.601Z,91.00
2018-11-05T12:19:40.273Z,91.10
2018-11-05T12:22:08.142Z,91.40
2018-11-05T12:24:35.895Z,91.40
2018-11-05T12:27:04.384Z,91.30
2018-11-05T12:29:32.100Z,91.20
2018-11-05T12:31:59.763Z,91.40
2018-11-05T12:34:27.442Z,91.20
2018-11-05T12:36:55.077Z,91.10
2018-11-05T12:39:22.721Z,90.80
2018-11-05T12:41:50.522Z,90.80
2018-11-05T12:44:18.379Z,90.70
2018-11-05T12:46:46.224Z,90.40
2018-11-05T12:49:13.920Z,90.50
2018-11-05T12:51:41.619Z,90.70
2018-11-05T12:54:09.281Z,90.60
2018-11-05T12:56:36.925Z,91.00
2018-11-05T12:59:04.910Z,90.90
2018-11-05T13:01:32.543Z,91.10
2018-11-05T13:04:00.209Z,91.30
2018-11-05T13:06:27.868Z,91.30
2018-11-05T13:08:55.517Z,91.40
2018-11-05T13:11:23.393Z,91.20
2018-11-05T13:13:51.092Z,91.20
2018-11-05T13:16:18.827Z,91.10
2018-11-05T13:18:46.517Z,91.00
2018-11-05T13:21:14.173Z,91.00
2018-11-05T13:23:44.356Z,91.10
2018-11-05T13:26:12.473Z,90.90
2018-11-05T13:28:40.204Z,90.60
2018-11-05T13:31:07.989Z,90.60
2018-11-05T13:33:35.762Z,90.30
2018-11-05T13:36:03.746Z,90.20
2018-11-05T13:38:31.439Z,90.20
2018-11-05T13:40:59.054Z,90.20
2018-11-05T13:43:26.732Z,90.20
2018-11-05T13:45:55.080Z,90.10
2018-11-05T13:48:22.693Z,90.00
2018-11-05T13:50:49.889Z,89.90
2018-11-05T13:53:17.525Z,89.30
2018-11-05T13:55:45.151Z,89.40
2018-11-05T13:58:12.844Z,89.00
2018-11-05T14:00:40.577Z,88.60
2018-11-05T14:03:08.310Z,89.00
2018-11-05T14:05:35.984Z,89.10
2018-11-05T14:08:03.722Z,88.70
2018-11-05T14:10:31.430Z,88.40
2018-11-05T14:12:59.189Z,88.50
2018-11-05T14:15:26.880Z,89.10
2018-11-05T14:17:54.577Z,88.00
2018-11-05T14:20:22.216Z,87.80
2018-11-05T14:22:49.939Z,88.50
2018-11-05T14:25:18.742Z,88.50
2018-11-05T14:27:47.938Z,88.10
2018-11-05T14:30:15.618Z,88.00
2018-11-05T14:32:44.415Z,88.90
2018-11-05T14:35:12.124Z,87.80
2018-11-05T14:37:39.854Z,87.80
2018-11-05T14:40:09.349Z,87.60
2018-11-05T14:42:37.156Z,87.80
2018-11-05T14:45:06.967Z,87.70
2018-11-05T14:47:34.665Z,87.70
2018-11-05T14:50:02.383Z,87.80
2018-11-05T14:52:30.029Z,87.90
2018-11-05T14:54:57.710Z,87.60
2018-11-05T14:57:25.530Z,87.50
2018-11-05T14:59:53.334Z,87.60
2018-11-05T15:02:26.636Z,87.40
2018-11-05T15:04:54.286Z,87.30
2018-11-05T15:07:21.948Z,87.40
2018-11-05T15:09:49.613Z,87.60
2018-11-05T15:12:17.334Z,87.70
2018-11-05T15:14:45.006Z,87.60
2018-11-05T15:17:12.616Z,87.60
2018-11-05T15:19:40.757Z,87.60
2018-11-05T15:22:07.929Z,87.70
2018-11-05T15:24:35.584Z,87.80
2018-11-05T15:27:03.498Z,87.80
2018-11-05T15:29:34.860Z,88.00
2018-11-05T15:32:02.563Z,88.10
2018-11-05T15:34:30.290Z,88.20
2018-11-05T15:36:58.035Z,88.30
2018-11-05T15:39:25.680Z,88.20
2018-11-05T15:41:53.442Z,88.20
2018-11-05T15:44:21.366Z,88.30
2018-11-05T15:46:49.091Z,88.60
2018-11-05T15:49:16.825Z,88.60
2018-11-05T15:51:44.715Z,89.00
2018-11-05T15:54:12.253Z,89.20
2018-11-05T15:56:39.938Z,89.20
2018-11-05T15:59:07.623Z,89.30
2018-11-05T16:01:35.239Z,89.40
2018-11-05T16:04:02.938Z,90.00
2018-11-05T16:06:30.730Z,90.00
2018-11-05T16:08:58.423Z,89.60
2018-11-05T16:11:26.071Z,89.80
2018-11-05T16:13:53.825Z,90.00
2018-11-05T16:16:21.513Z,90.20
2018-11-05T16:18:49.379Z,90.30
2018-11-05T16:21:17.073Z,90.50
2018-11-05T16:23:44.774Z,90.50
2018-11-05T16:26:12.473Z,90.50
2018-11-05T16:28:40.413Z,90.70
2018-11-05T16:31:08.249Z,90.90
2018-11-05T16:33:36.054Z,91.10
2018-11-05T16:36:03.820Z,91.10
2018-11-05T16:38:31.585Z,91.20
2018-11-05T16:40:59.270Z,91.30
2018-11-05T16:43:27.089Z,91.40
2018-11-05T16:45:55.027Z,91.30
2018-11-05T16:48:23.037Z,91.60
2018-11-05T16:50:50.946Z,91.60
2018-11-05T16:53:18.770Z,91.60
2018-11-05T16:55:46.586Z,91.60
2018-11-05T16:58:14.400Z,91.50
2018-11-05T17:00:42.290Z,91.40
2018-11-05T17:03:10.002Z,91.20
2018-11-05T17:05:37.817Z,91.60
2018-11-05T17:08:05.466Z,91.40
2018-11-05T17:10:33.120Z,91.50
2018-11-05T17:13:00.815Z,91.40
2018-11-05T17:15:28.567Z,91.50
2018-11-05T17:17:56.344Z,91.50
2018-11-05T17:20:24.084Z,91.40
2018-11-05T17:22:51.734Z,91.60
2018-11-05T17:25:19.429Z,91.40
2018-11-05T17:27:47.609Z,91.20
2018-11-05T17:30:17.938Z,91.40
2018-11-05T17:32:45.937Z,91.50
2018-11-05T17:35:14.305Z,91.50
2018-11-05T17:37:42.341Z,91.60
2018-11-05T17:40:12.769Z,91.70
2018-11-05T17:42:40.721Z,91.70
2018-11-05T17:45:09.934Z,91.60
2018-11-05T17:47:37.967Z,91.50
2018-11-05T17:50:08.117Z,91.50
2018-11-05T17:52:35.745Z,91.60
2018-11-05T17:55:03.695Z,91.70
2018-11-05T17:57:31.323Z,91.70
2018-11-05T17:59:58.973Z,91.60
2018-11-05T18:02:26.702Z,91.40
2018-11-05T18:04:55.481Z,91.60
2018-11-05T18:07:23.698Z,91.70
2018-11-05T18:09:51.680Z,91.70
2018-11-05T18:12:19.334Z,91.90
2018-11-05T18:14:48.056Z,92.10
2018-11-05T18:17:15.694Z,92.30
2018-11-05T18:19:43.402Z,92.10
2018-11-05T18:22:11.128Z,92.10
2018-11-05T18:24:40.429Z,92.30
2018-11-05T18:27:08.223Z,92.30
2018-11-05T18:29:35.946Z,92.20
2018-11-05T18:32:03.801Z,92.10
2018-11-05T18:34:31.910Z,91.80
2018-11-05T18:36:59.686Z,91.70
2018-11-05T18:39:27.470Z,91.90
2018-11-05T18:42:03.184Z,92.20
2018-11-05T18:44:35.817Z,92.40
2018-11-05T18:47:03.589Z,92.50
2018-11-05T18:49:31.342Z,92.40
2018-11-05T18:51:59.466Z,92.90
2018-11-05T18:54:29.065Z,92.40
2018-11-05T18:56:57.228Z,92.20
2018-11-05T18:59:26.361Z,92.20
2018-11-05T19:01:55.238Z,92.30
2018-11-05T19:04:23.180Z,92.10
2018-11-05T19:06:51.821Z,92.30
2018-11-05T19:09:20.080Z,92.30
2018-11-05T19:11:48.641Z,92.10
2018-11-05T19:14:18.562Z,92.20
2018-11-05T19:16:46.652Z,92.30
2018-11-05T19:19:14.481Z,92.20
2018-11-05T19:21:42.423Z,92.20
2018-11-05T19:24:10.612Z,92.20
2018-11-05T19:26:38.510Z,92.10
2018-11-05T19:29:07.442Z,92.20
2018-11-05T19:31:35.425Z,92.30
2018-11-05T19:34:03.422Z,92.20
2018-11-05T19:36:31.230Z,92.30
2018-11-05T19:38:58.988Z,92.40
2018-11-05T19:41:26.679Z,92.50
2018-11-05T19:43:54.448Z,92.60
2018-11-05T19:46:22.255Z,92.20
2018-11-05T19:48:50.281Z,92.20
2018-11-05T19:51:17.974Z,92.20
2018-11-05T19:53:45.824Z,92.10
2018-11-05T19:56:13.862Z,92.10
2018-11-05T19:58:41.470Z,92.30
2018-11-05T20:01:11.064Z,92.40
2018-11-05T20:03:39.870Z,92.30
2018-11-05T20:06:10.032Z,92.40
2018-11-05T20:08:40.929Z,92.30
2018-11-05T20:11:08.912Z,92.10
2018-11-05T20:13:36.892Z,92.30
2018-11-05T20:16:04.832Z,92.50
2018-11-05T20:18:32.975Z,92.50
2018-11-05T20:21:00.554Z,92.50
2018-11-05T20:23:28.358Z,92.30
2018-11-05T20:25:56.139Z,92.20
2018-11-05T20:28:28.331Z,92.10
2018-11-05T20:30:56.175Z,92.20
2018-11-05T20:33:24.139Z,92.20
2018-11-05T20:35:51.712Z,92.10
2018-11-05T20:38:19.420Z,92.10
2018-11-05T20:40:47.283Z,92.00
2018-11-05T20:43:14.894Z,92.00
2018-11-05T20:45:42.597Z,92.10
2018-11-05T20:48:10.206Z,92.80
2018-11-05T20:50:37.919Z,92.80
2018-11-05T20:53:05.705Z,92.60
2018-11-05T20:55:33.368Z,92.60
2018-11-05T20:58:01.553Z,92.70
2018-11-05T21:00:29.165Z,92.80
2018-11-05T21:02:57.058Z,92.80
2018-11-05T21:05:24.865Z,92.50
2018-11-05T21:07:52.931Z,92.50
2018-11-05T21:10:20.630Z,92.60
2018-11-05T21:12:51.331Z,92.50
2018-11-05T21:15:20.545Z,92.70
2018-11-05T21:17:49.944Z,93.10
2018-11-05T21:20:18.395Z,92.50
2018-11-05T21:22:46.821Z,92.70
2018-11-05T21:25:14.461Z,92.80
2018-11-05T21:27:43.093Z,92.70
2018-11-05T21:30:16.909Z,92.70
2018-11-05T21:32:44.888Z,92.70
2018-11-05T21:35:13.987Z,92.80
2018-11-05T21:37:42.321Z,92.80
2018-11-05T21:40:11.151Z,92.90
2018-11-05T21:42:39.108Z,92.90
2018-11-05T21:45:08.499Z,92.60
2018-11-05T21:47:36.522Z,92.50
2018-11-05T21:50:06.245Z,92.30
2018-11-05T21:52:33.747Z,92.50
2018-11-05T21:55:01.492Z,92.50
2018-11-05T21:57:29.592Z,92.60
2018-11-05T21:59:57.463Z,92.60
2018-11-05T22:02:27.290Z,92.30
2018-11-05T22:04:55.378Z,92.40
2018-11-05T22:07:23.668Z,92.50
2018-11-05T22:09:51.421Z,92.70
2018-11-05T22:12:19.129Z,92.70
2018-11-05T22:14:46.921Z,92.80
2018-11-05T22:17:14.693Z,92.90
2018-11-05T22:19:42.901Z,93.20
2018-11-05T22:22:11.476Z,93.40
2018-11-05T22:24:40.993Z,93.50
2018-11-05T22:27:12.270Z,93.60
2018-11-05T22:29:39.960Z,93.40
2018-11-05T22:32:08.014Z,93.40
2018-11-05T22:34:38.667Z,93.50
2018-11-05T22:37:06.374Z,93.30
2018-11-05T22:39:34.073Z,93.40
2018-11-05T22:42:01.795Z,93.50
2018-11-05T22:44:29.656Z,93.70
2018-11-05T22:46:57.577Z,93.80
2018-11-05T22:49:25.712Z,94.00
2018-11-05T22:51:53.588Z,93.90
2018-11-05T22:54:21.564Z,94.10
2018-11-05T22:56:49.657Z,93.40
2018-11-05T22:59:17.408Z,93.50
2018-11-05T23:01:50.789Z,93.40
2018-11-05T23:04:18.943Z,93.10
2018-11-05T23:06:47.428Z,93.30
2018-11-05T23:09:15.355Z,93.60
2018-11-05T23:11:43.065Z,93.60
2018-11-05T23:14:11.362Z,93.30
2018-11-05T23:16:39.502Z,93.40
2018-11-05T23:19:07.231Z,93.40
2018-11-05T23:21:34.926Z,93.20
2018-11-05T23:24:02.745Z,93.20
2018-11-05T23:26:30.510Z,93.30
2018-11-05T23:28:58.505Z,93.00
2018-11-05T23:31:26.523Z,92.80
2018-11-05T23:33:54.758Z,93.30
2018-11-05T23:36:29.105Z,92.90
2018-11-05T23:38:57.309Z,93.20
2018-11-05T23:41:25.093Z,93.40
2018-11-05T23:43:53.043Z,93.50
2018-11-05T23:46:20.798Z,93.40
2018-11-05T23:48:48.458Z,93.50
2018-11-05T23:51:16.181Z,93.40
2018-11-05T23:53:43.881Z,93.30
2018-11-05T23:56:11.574Z,93.70
2018-11-05T23:58:39.285Z,93.40
